Bishop, California
Current Conditions -  °F | °C
As of 8:56 PM on Friday 31 Oct 2014 (Local Time) from KBIH Reporting Station
Clear Clear  
Wind Chill: 60°   Ceiling: Unl
Heat Index: 60°   Visibility: 10mi
Dew Point: 32°   Wind: 26mph
Humidity: 35%   Direction: 150°SSE
Pressure: 29.63"   Gusts: 33mph
Location:  37.24°N, 118.4°W
Report Text: KBIH 010356Z AUTO 15023G29KT 10SM CLR 16/00 A2963 RMK AO2 PK WND 15035/0326 SLP007 T01560000
Loading
Personal Weather Stations






























Interactive Weather Map
Tropical Storm Tracking
New forecast layout! Learn more

10-Day Weather Forecast

Advertisements
Track Severe Weather on mobile